Time;durP1;ratioP1;P1;durP2;ratioP2;P2;SDS_P1;SDS_P2;PMS_P1;PMS_P2;Temp;Humidity;BMP_temperature;BMP_pressure;BME280_temperature;BME280_humidity;BME280_pressure;Samples;Min_cycle;Max_cycle;Signal;HPM_P1;HPM_P2
2022/10/02 00:00:43;;;;;;;33.60;6.15;;;16.10;86.50;;;;;;4925151;28;20046;-75
2022/10/02 00:03:14;;;;;;;33.42;6.63;;;16.10;86.90;;;;;;4923210;29;20587;-75
2022/10/02 00:05:46;;;;;;;28.33;5.30;;;16.10;87.20;;;;;;4925411;28;20034;-76
2022/10/02 00:08:24;;;;;;;28.27;5.85;;;16.00;87.50;;;;;;4906963;29;20568;-76
2022/10/02 00:10:53;;;;;;;26.77;5.82;;;16.10;87.80;;;;;;4926623;29;20114;-75
2022/10/02 00:13:30;;;;;;;29.35;6.05;;;16.10;88.00;;;;;;4930157;29;20098;-77
2022/10/02 00:15:56;;;;;;;40.03;6.82;;;16.00;88.10;;;;;;4921039;29;20032;-77
2022/10/02 00:18:31;;;;;;;30.92;6.38;;;16.00;88.10;;;;;;4926521;29;20305;-74
2022/10/02 00:21:18;;;;;;;28.30;5.97;;;16.00;88.40;;;;;;4924694;29;20036;-75
2022/10/02 00:23:50;;;;;;;32.80;5.85;;;15.90;88.50;;;;;;4923039;29;20138;-74
2022/10/02 00:26:30;;;;;;;30.55;6.35;;;15.90;88.60;;;;;;4929199;29;20372;-76
2022/10/02 00:29:23;;;;;;;30.60;6.10;;;15.90;88.80;;;;;;4924404;28;20551;-76
2022/10/02 00:32:00;;;;;;;30.40;5.50;;;15.90;88.80;;;;;;4926694;29;20048;-74
2022/10/02 00:34:41;;;;;;;27.40;6.05;;;16.00;88.80;;;;;;4922042;28;20040;-74
2022/10/02 00:37:36;;;;;;;29.90;6.15;;;15.90;88.60;;;;;;4927636;29;20118;-76
2022/10/02 00:40:27;;;;;;;35.28;7.03;;;15.90;88.50;;;;;;4919205;28;20035;-76
2022/10/02 00:43:23;;;;;;;36.47;6.70;;;15.90;88.60;;;;;;4920507;29;20036;-76
2022/10/02 00:46:00;;;;;;;;;;;15.90;88.60;;;;;;4923109;29;20031;-75
2022/10/02 00:48:37;;;;;;;30.88;5.47;;;15.90;88.70;;;;;;4915032;28;19939;-76
2022/10/02 00:51:24;;;;;;;28.55;5.65;;;15.90;88.70;;;;;;4922199;29;20043;-77
2022/10/02 00:54:36;;;;;;;30.88;5.78;;;15.90;88.80;;;;;;4921864;28;20488;-77
2022/10/02 00:57:32;;;;;;;29.15;6.38;;;15.90;88.90;;;;;;4818757;29;20164;-77
2022/10/02 00:59:58;;;;;;;31.13;7.50;;;15.90;89.00;;;;;;4918140;28;20044;-76
2022/10/02 01:02:30;;;;;;;36.08;7.05;;;15.90;89.00;;;;;;4919441;29;20050;-76
2022/10/02 01:05:01;;;;;;;30.38;6.10;;;15.90;89.00;;;;;;4915843;28;20124;-76
2022/10/02 01:07:26;;;;;;;30.38;5.97;;;15.90;89.10;;;;;;4928663;29;20091;-78
2022/10/02 01:09:52;;;;;;;38.42;6.38;;;15.90;89.10;;;;;;4908703;28;20510;-75
2022/10/02 01:12:18;;;;;;;32.78;6.30;;;15.90;89.20;;;;;;4926418;29;20538;-78
2022/10/02 01:14:44;;;;;;;25.95;6.00;;;15.90;89.30;;;;;;4918133;28;20036;-76
2022/10/02 01:17:36;;;;;;;25.30;6.10;;;15.90;89.50;;;;;;4915215;29;20036;-75
2022/10/02 01:20:04;;;;;;;29.90;5.80;;;16.00;89.50;;;;;;4907789;28;20063;-76
2022/10/02 01:22:34;;;;;;;31.52;6.38;;;16.00;89.40;;;;;;4901180;29;20032;-78
2022/10/02 01:25:05;;;;;;;29.83;6.00;;;15.90;89.40;;;;;;4926065;28;20064;-78
2022/10/02 01:27:32;;;;;;;30.60;5.20;;;16.00;89.50;;;;;;4906909;29;20083;-76
2022/10/02 01:30:08;;;;;;;28.63;5.97;;;15.90;89.60;;;;;;4929017;28;20054;-78
2022/10/02 01:32:37;;;;;;;24.70;5.43;;;15.90;89.70;;;;;;4916516;29;20474;-74
2022/10/02 01:35:03;;;;;;;27.25;5.18;;;15.80;89.80;;;;;;4937599;28;20321;-77
2022/10/02 01:37:32;;;;;;;25.63;5.47;;;15.80;90.00;;;;;;4918686;29;20013;-75
2022/10/02 01:40:04;;;;;;;27.02;5.00;;;15.70;90.60;;;;;;4930132;28;20054;-75
2022/10/02 01:42:30;;;;;;;24.05;5.72;;;15.70;90.70;;;;;;4921070;29;20055;-78
2022/10/02 01:44:56;;;;;;;26.77;6.97;;;15.70;90.70;;;;;;4918528;28;20088;-77
2022/10/02 01:47:54;;;;;;;24.52;6.90;;;15.70;90.60;;;;;;4920338;28;20039;-78
2022/10/02 01:50:31;;;;;;;19.35;6.50;;;15.60;90.60;;;;;;4917774;28;20035;-74
2022/10/02 01:53:08;;;;;;;30.17;6.72;;;15.60;90.50;;;;;;4909336;29;20148;-76
2022/10/02 01:55:43;;;;;;;19.27;5.40;;;15.60;90.50;;;;;;4917084;28;20472;-75
2022/10/02 01:58:22;;;;;;;26.05;6.53;;;15.60;90.70;;;;;;4919857;29;20063;-74
2022/10/02 02:01:08;;;;;;;28.27;6.03;;;15.60;90.70;;;;;;4920881;29;20040;-77
2022/10/02 02:04:00;;;;;;;24.42;5.30;;;15.60;90.80;;;;;;4916957;28;20028;-76
2022/10/02 02:07:03;;;;;;;26.90;5.45;;;15.60;90.90;;;;;;4893731;29;20035;-74
2022/10/02 02:09:38;;;;;;;25.40;5.65;;;15.60;90.90;;;;;;4925916;29;20024;-75
2022/10/02 02:12:30;;;;;;;21.77;5.25;;;15.60;90.80;;;;;;4912120;29;20495;-75
2022/10/02 02:15:12;;;;;;;18.60;4.47;;;15.60;90.70;;;;;;4928000;28;20050;-75
2022/10/02 02:17:56;;;;;;;21.70;5.65;;;15.50;90.70;;;;;;4926020;29;20043;-75
2022/10/02 02:20:27;;;;;;;24.40;6.10;;;15.50;90.70;;;;;;4925363;29;20078;-75
2022/10/02 02:22:54;;;;;;;21.33;4.75;;;15.40;90.70;;;;;;4920255;29;20124;-74
2022/10/02 02:25:27;;;;;;;16.48;4.57;;;15.40;90.70;;;;;;4930198;28;20028;-75
2022/10/02 02:27:57;;;;;;;18.70;4.10;;;15.40;90.80;;;;;;4922409;29;20068;-75
2022/10/02 02:30:24;;;;;;;22.15;5.40;;;15.30;90.70;;;;;;4929043;28;20055;-75
2022/10/02 02:32:57;;;;;;;20.42;5.38;;;15.30;90.70;;;;;;4921458;29;20039;-75
2022/10/02 02:35:34;;;;;;;18.15;4.32;;;15.30;90.70;;;;;;4924988;29;20456;-76
2022/10/02 02:38:05;;;;;;;23.98;5.18;;;15.30;90.80;;;;;;4924463;29;20127;-75
2022/10/02 02:40:34;;;;;;;16.98;4.22;;;15.30;90.80;;;;;;4926962;28;20058;-74
2022/10/02 02:43:15;;;;;;;15.63;4.20;;;15.30;90.80;;;;;;4924141;29;20036;-75
2022/10/02 02:45:54;;;;;;;16.30;4.22;;;15.30;90.80;;;;;;4914778;29;20090;-75
2022/10/02 02:48:28;;;;;;;19.55;5.05;;;15.20;91.00;;;;;;4920508;29;20036;-75
2022/10/02 02:51:00;;;;;;;;;;;15.30;91.00;;;;;;4924121;29;20027;-75
2022/10/02 02:53:32;;;;;;;19.10;4.68;;;15.20;91.00;;;;;;4922839;28;19929;-75
2022/10/02 02:56:00;;;;;;;19.38;4.70;;;15.20;91.00;;;;;;4915971;29;20055;-74
2022/10/02 02:58:53;;;;;;;15.55;4.60;;;15.20;91.00;;;;;;4918917;29;20374;-77
2022/10/02 03:01:19;;;;;;;16.25;4.63;;;15.20;91.00;;;;;;4920851;29;20047;-78
2022/10/02 03:03:44;;;;;;;21.70;4.40;;;15.10;90.80;;;;;;4926994;28;20047;-74
2022/10/02 03:06:17;;;;;;;16.38;4.25;;;15.20;90.90;;;;;;4928480;29;20047;-74
2022/10/02 03:08:45;;;;;;;20.35;5.10;;;15.10;90.90;;;;;;4926754;28;20039;-77
2022/10/02 03:11:31;;;;;;;17.52;4.15;;;15.10;91.00;;;;;;4900563;29;20070;-74
2022/10/02 03:14:30;;;;;;;20.10;4.40;;;15.10;90.90;;;;;;4923885;28;20047;-74
2022/10/02 03:17:15;;;;;;;21.75;5.35;;;15.10;91.00;;;;;;4927654;28;20036;-75
2022/10/02 03:20:07;;;;;;;24.38;4.72;;;15.20;91.10;;;;;;4922047;29;20054;-78
2022/10/02 03:23:11;;;;;;;18.77;4.55;;;15.20;91.00;;;;;;4939564;28;20035;-76
2022/10/02 03:25:47;;;;;;;17.33;4.22;;;15.20;91.10;;;;;;4854087;29;20124;-75
2022/10/02 03:28:22;;;;;;;19.27;4.75;;;15.10;91.00;;;;;;4908450;29;20040;-78
2022/10/02 03:30:50;;;;;;;19.30;4.35;;;15.10;91.00;;;;;;4925293;29;20033;-76
2022/10/02 03:33:16;;;;;;;17.40;4.50;;;15.10;90.90;;;;;;4920610;29;20119;-77
2022/10/02 03:35:43;;;;;;;20.77;5.35;;;15.00;90.80;;;;;;4929588;28;20036;-75
2022/10/02 03:38:13;;;;;;;19.55;4.75;;;14.90;90.80;;;;;;4928352;29;20035;-73
2022/10/02 03:40:39;;;;;;;20.38;4.82;;;14.90;90.70;;;;;;4923318;29;20121;-76
2022/10/02 03:43:05;;;;;;;19.05;4.40;;;14.90;90.50;;;;;;4914749;29;20448;-77
2022/10/02 03:45:31;;;;;;;14.57;4.82;;;14.90;90.30;;;;;;4927175;28;20036;-77
2022/10/02 03:47:56;;;;;;;26.30;5.38;;;14.90;90.20;;;;;;4926890;29;20384;-73
2022/10/02 03:50:22;;;;;;;23.33;5.38;;;14.80;90.10;;;;;;4913760;28;20146;-76
2022/10/02 03:52:52;;;;;;;16.33;4.88;;;14.80;90.20;;;;;;4927499;29;20031;-77
2022/10/02 03:55:32;;;;;;;18.10;4.47;;;14.80;90.10;;;;;;4926802;28;20523;-74
2022/10/02 03:57:58;;;;;;;18.73;4.10;;;14.80;90.10;;;;;;4921243;28;20052;-77
2022/10/02 04:00:48;;;;;;;21.98;4.35;;;14.80;90.30;;;;;;4918458;29;20131;-76
2022/10/02 04:03:20;;;;;;;23.35;4.47;;;14.80;90.40;;;;;;4899839;29;20492;-76
2022/10/02 04:06:00;;;;;;;21.83;4.00;;;14.80;90.50;;;;;;4919665;28;20479;-76
2022/10/02 04:08:42;;;;;;;18.33;4.45;;;14.80;90.60;;;;;;4924265;28;20098;-76
2022/10/02 04:11:08;;;;;;;19.58;4.40;;;14.80;90.70;;;;;;4922397;29;20044;-78
2022/10/02 04:13:48;;;;;;;20.20;4.60;;;14.80;90.80;;;;;;4924096;28;20098;-77
2022/10/02 04:16:38;;;;;;;21.90;4.75;;;14.80;90.90;;;;;;4916193;29;20051;-75
2022/10/02 04:19:10;;;;;;;21.02;4.88;;;14.80;90.90;;;;;;4921802;28;20048;-76
2022/10/02 04:22:07;;;;;;;21.10;4.82;;;14.80;90.90;;;;;;4922464;29;20046;-77
2022/10/02 04:24:54;;;;;;;21.48;4.50;;;14.80;91.00;;;;;;4908916;28;20066;-76
2022/10/02 04:27:40;;;;;;;20.13;4.70;;;14.80;91.00;;;;;;4918285;29;20098;-77
2022/10/02 04:30:11;;;;;;;17.70;4.80;;;14.90;91.10;;;;;;4920418;28;20068;-75
2022/10/02 04:32:37;;;;;;;26.52;5.07;;;14.80;91.20;;;;;;4921146;29;20038;-78
2022/10/02 04:35:13;;;;;;;23.65;5.50;;;14.90;91.10;;;;;;4927099;28;20142;-79
2022/10/02 04:37:41;;;;;;;23.13;4.90;;;14.80;91.20;;;;;;4918109;29;20028;-77
2022/10/02 04:40:16;;;;;;;21.38;5.18;;;14.80;91.30;;;;;;4921002;29;20039;-75
2022/10/02 04:42:50;;;;;;;18.15;4.63;;;14.80;91.30;;;;;;4918675;29;20032;-76
2022/10/02 04:45:34;;;;;;;21.77;4.82;;;14.80;91.40;;;;;;4919751;29;20044;-76
2022/10/02 04:48:31;;;;;;;22.77;5.30;;;14.80;91.60;;;;;;4922921;29;20741;-76
2022/10/02 04:51:11;;;;;;;25.63;5.30;;;14.80;91.60;;;;;;4924465;29;20032;-77
2022/10/02 04:53:52;;;;;;;20.35;5.05;;;14.80;91.50;;;;;;4914927;28;20024;-76
2022/10/02 04:56:52;;;;;;;16.55;4.10;;;14.80;91.50;;;;;;4915786;29;20028;-75
2022/10/02 04:59:36;;;;;;;20.20;3.85;;;14.80;91.50;;;;;;4922836;29;20044;-77
2022/10/02 05:02:46;;;;;;;15.55;4.00;;;14.80;91.40;;;;;;4921905;29;20056;-76
2022/10/02 05:05:32;;;;;;;19.88;4.60;;;14.70;91.30;;;;;;4902541;29;20036;-76
2022/10/02 05:08:12;;;;;;;17.00;4.05;;;14.60;91.30;;;;;;4920318;29;20044;-76
2022/10/02 05:10:45;;;;;;;20.13;4.30;;;14.60;91.30;;;;;;4921929;28;20522;-76
2022/10/02 05:13:33;;;;;;;19.58;3.80;;;14.60;91.30;;;;;;4901094;29;20365;-76
2022/10/02 05:16:02;;;;;;;18.60;3.88;;;14.50;91.30;;;;;;4910355;29;20055;-76
2022/10/02 05:18:36;;;;;;;16.90;4.15;;;14.50;91.30;;;;;;4903495;29;20413;-74
2022/10/02 05:21:39;;;;;;;18.05;3.30;;;14.50;91.50;;;;;;4905150;29;20067;-75
2022/10/02 05:24:42;;;;;;;19.38;4.13;;;14.50;91.40;;;;;;4881227;29;20380;-76
2022/10/02 05:27:47;;;;;;;16.90;4.15;;;14.60;91.50;;;;;;4901753;29;20499;-75
2022/10/02 05:30:15;;;;;;;19.50;4.40;;;14.50;91.60;;;;;;4903969;29;20096;-74
2022/10/02 05:32:59;;;;;;;19.25;5.20;;;14.50;91.60;;;;;;4903591;29;20029;-75
2022/10/02 05:35:43;;;;;;;17.13;4.30;;;14.50;91.60;;;;;;4902265;29;20032;-77
2022/10/02 05:38:11;;;;;;;14.90;3.85;;;14.50;91.70;;;;;;4919897;29;20076;-75
2022/10/02 05:41:05;;;;;;;18.67;4.63;;;14.50;91.60;;;;;;4911170;29;20032;-75
2022/10/02 05:43:49;;;;;;;14.32;3.80;;;14.50;91.70;;;;;;4931312;28;20480;-77
2022/10/02 05:46:32;;;;;;;17.73;4.10;;;14.50;91.80;;;;;;4910788;29;20196;-75
2022/10/02 05:49:07;;;;;;;16.30;4.40;;;14.50;91.80;;;;;;4911184;28;20272;-75
2022/10/02 05:51:52;;;;;;;18.40;4.63;;;14.50;91.90;;;;;;4910643;29;20020;-75
2022/10/02 05:54:32;;;;;;;19.75;5.30;;;14.50;91.90;;;;;;4911919;28;20127;-74
2022/10/02 05:57:05;;;;;;;19.85;4.68;;;14.50;91.90;;;;;;4914855;29;20045;-77
2022/10/02 05:59:51;;;;;;;16.88;4.32;;;14.50;91.80;;;;;;4905374;28;20028;-76
2022/10/02 06:02:36;;;;;;;18.00;4.32;;;14.50;92.00;;;;;;4907431;28;20059;-77
2022/10/02 06:05:20;;;;;;;18.63;4.70;;;14.50;91.90;;;;;;4908534;29;20044;-75
2022/10/02 06:07:51;;;;;;;17.73;4.95;;;14.50;92.00;;;;;;4910679;29;20032;-74
2022/10/02 06:10:30;;;;;;;21.38;5.25;;;14.50;91.90;;;;;;4909256;28;20040;-74
2022/10/02 06:13:04;;;;;;;15.23;4.47;;;14.50;92.10;;;;;;4913641;29;20062;-74
2022/10/02 06:15:41;;;;;;;19.85;4.25;;;14.50;92.00;;;;;;4923153;28;20281;-74
2022/10/02 06:18:18;;;;;;;17.50;4.07;;;14.40;91.90;;;;;;4921385;29;20051;-75
2022/10/02 06:20:52;;;;;;;19.13;4.50;;;14.40;91.90;;;;;;4924418;29;20506;-75
2022/10/02 06:23:32;;;;;;;18.70;3.95;;;14.40;91.90;;;;;;4920788;29;20803;-76
2022/10/02 06:26:05;;;;;;;14.15;4.20;;;14.40;91.90;;;;;;4906854;29;20023;-74
2022/10/02 06:28:43;;;;;;;14.85;3.55;;;14.30;91.80;;;;;;4927998;28;20043;-77
2022/10/02 06:31:24;;;;;;;18.52;4.25;;;14.30;91.80;;;;;;4921790;29;20039;-76
2022/10/02 06:33:51;;;;;;;19.77;4.70;;;14.30;91.80;;;;;;4923527;28;20047;-75
2022/10/02 06:36:44;;;;;;;14.90;4.07;;;14.30;91.80;;;;;;4925167;29;20036;-75
2022/10/02 06:39:34;;;;;;;12.60;4.10;;;14.30;91.60;;;;;;4907975;29;20028;-75
2022/10/02 06:42:26;;;;;;;12.65;3.40;;;14.20;91.80;;;;;;4927620;29;20054;-76
2022/10/02 06:45:07;;;;;;;17.90;4.07;;;14.20;91.80;;;;;;4924202;29;20408;-75
2022/10/02 06:47:42;;;;;;;13.43;3.50;;;14.20;91.70;;;;;;4919314;29;20436;-77
2022/10/02 06:50:10;;;;;;;;;;;14.20;91.80;;;;;;4906935;29;20135;-75
2022/10/02 06:53:12;;;;;;;12.32;3.45;;;14.30;91.80;;;;;;4917098;29;20268;-74
2022/10/02 06:55:53;;;;;;;16.25;4.20;;;14.30;91.80;;;;;;4886553;29;20196;-75
2022/10/02 06:58:49;;;;;;;18.23;3.75;;;14.30;91.70;;;;;;4918219;29;20040;-79
2022/10/02 07:01:41;;;;;;;12.57;3.10;;;14.20;91.70;;;;;;4911738;29;20043;-79
2022/10/02 07:04:29;;;;;;;14.43;4.40;;;14.30;91.70;;;;;;4929657;28;20040;-79
2022/10/02 07:07:06;;;;;;;14.20;3.85;;;14.30;91.70;;;;;;4920610;29;20054;-79
2022/10/02 07:09:35;;;;;;;9.98;3.20;;;14.20;91.70;;;;;;4920878;28;20152;-80
2022/10/02 07:12:19;;;;;;;13.05;4.18;;;14.30;91.70;;;;;;4923591;29;20043;-79
2022/10/02 07:14:58;;;;;;;13.60;3.33;;;14.20;91.60;;;;;;4920142;28;20079;-80
2022/10/02 07:17:51;;;;;;;10.63;3.17;;;14.30;91.60;;;;;;4918609;29;20040;-80
2022/10/02 07:20:33;;;;;;;15.07;4.03;;;14.30;91.70;;;;;;4906572;29;20039;-79
2022/10/02 07:22:59;;;;;;;13.85;3.70;;;14.30;91.70;;;;;;4904415;29;20036;-79
2022/10/02 07:25:50;;;;;;;11.35;3.63;;;14.30;91.70;;;;;;4912490;29;20644;-80
2022/10/02 07:28:38;;;;;;;11.95;3.63;;;14.40;91.70;;;;;;4921618;29;20047;-79
2022/10/02 07:31:30;;;;;;;11.98;4.13;;;14.40;91.70;;;;;;4922536;29;20692;-79
2022/10/02 07:34:28;;;;;;;13.02;4.25;;;14.40;91.60;;;;;;4922624;28;20134;-80
2022/10/02 07:37:03;;;;;;;12.70;4.50;;;14.50;91.40;;;;;;4916429;29;20547;-79
2022/10/02 07:39:40;;;;;;;11.60;4.35;;;14.50;91.20;;;;;;4905004;29;20039;-79
2022/10/02 07:42:25;;;;;;;14.07;4.28;;;14.50;91.00;;;;;;4916091;29;20369;-79
2022/10/02 07:45:24;;;;;;;11.30;4.13;;;14.60;91.10;;;;;;4919578;29;20122;-79
2022/10/02 07:48:05;;;;;;;13.13;3.83;;;14.60;91.10;;;;;;4919356;28;20028;-80
2022/10/02 07:51:02;;;;;;;8.07;3.92;;;14.70;90.90;;;;;;4921325;29;20094;-79
2022/10/02 07:53:37;;;;;;;10.25;2.90;;;14.80;90.60;;;;;;4918746;28;20024;-79
2022/10/02 07:56:06;;;;;;;9.93;3.20;;;14.70;90.20;;;;;;4919419;29;20043;-79
2022/10/02 07:58:32;;;;;;;14.43;4.35;;;14.70;90.30;;;;;;4917347;28;20055;-80
2022/10/02 08:01:07;;;;;;;8.48;3.55;;;14.70;90.30;;;;;;4919806;29;20048;-79
2022/10/02 08:03:57;;;;;;;8.25;3.45;;;14.80;90.20;;;;;;4930668;28;20368;-80
2022/10/02 08:06:24;;;;;;;9.05;2.90;;;14.70;90.00;;;;;;4914732;29;20221;-80
2022/10/02 08:08:59;;;;;;;11.70;3.05;;;14.70;90.00;;;;;;4919324;28;20036;-80
2022/10/02 08:11:47;;;;;;;8.82;2.95;;;14.70;89.80;;;;;;4917247;29;20127;-78
2022/10/02 08:14:19;;;;;;;10.55;3.25;;;14.70;90.00;;;;;;4919953;28;20040;-80
2022/10/02 08:16:51;;;;;;;8.35;2.67;;;14.80;89.70;;;;;;4922327;29;20445;-81
2022/10/02 08:19:26;;;;;;;9.93;2.88;;;14.70;89.70;;;;;;4914725;29;20384;-81
2022/10/02 08:21:57;;;;;;;11.95;3.15;;;14.70;89.70;;;;;;4917675;29;20040;-81
2022/10/02 08:24:28;;;;;;;9.55;2.65;;;14.70;89.30;;;;;;4901678;29;20110;-82
2022/10/02 08:26:56;;;;;;;9.68;3.08;;;14.80;89.70;;;;;;4913944;29;20354;-81
2022/10/02 08:29:39;;;;;;;9.85;3.00;;;14.80;89.60;;;;;;4901784;29;20511;-80
2022/10/02 08:32:11;;;;;;;10.60;3.45;;;14.90;89.70;;;;;;4918348;29;20047;-81
2022/10/02 08:34:38;;;;;;;10.63;3.20;;;14.90;89.00;;;;;;4934369;28;20490;-80
2022/10/02 08:37:27;;;;;;;8.65;3.00;;;14.90;89.10;;;;;;4909186;29;20364;-81
2022/10/02 08:40:27;;;;;;;10.02;3.15;;;15.00;88.80;;;;;;4922417;28;20526;-80
2022/10/02 08:43:28;;;;;;;10.40;3.35;;;15.10;89.00;;;;;;4921504;29;20119;-79
2022/10/02 08:46:12;;;;;;;11.10;2.97;;;15.10;88.50;;;;;;4919911;29;20086;-80
2022/10/02 08:48:48;;;;;;;8.27;3.72;;;15.00;88.40;;;;;;4914145;28;20039;-80
2022/10/02 08:51:47;;;;;;;7.35;2.80;;;15.00;88.40;;;;;;4912820;29;20679;-80
2022/10/02 08:54:43;;;;;;;9.68;3.35;;;14.90;88.70;;;;;;4902191;28;20332;-75
2022/10/02 08:57:11;;;;;;;11.27;3.63;;;14.90;88.50;;;;;;4920066;28;20066;-82
2022/10/02 08:59:56;;;;;;;6.90;3.13;;;14.90;88.50;;;;;;4915853;28;20032;-83
2022/10/02 09:02:46;;;;;;;9.77;2.83;;;14.90;88.40;;;;;;4915021;28;20051;-83
2022/10/02 09:05:47;;;;;;;9.15;2.95;;;14.80;88.50;;;;;;4911974;28;20032;-82
2022/10/02 09:08:57;;;;;;;15.77;3.80;;;14.80;88.40;;;;;;4918382;29;20393;-82
2022/10/02 09:12:03;;;;;;;9.20;3.03;;;14.80;88.50;;;;;;4913081;29;21199;-81
2022/10/02 09:14:47;;;;;;;7.20;2.72;;;14.80;88.40;;;;;;4911576;28;20041;-81
2022/10/02 09:17:39;;;;;;;8.70;3.03;;;14.70;88.50;;;;;;4913978;29;20667;-81
2022/10/02 09:20:14;;;;;;;8.25;2.55;;;14.80;88.60;;;;;;4928999;28;20447;-82
2022/10/02 09:23:18;;;;;;;10.48;2.88;;;14.80;88.70;;;;;;4912938;29;20096;-82
2022/10/02 09:25:57;;;;;;;8.68;3.03;;;14.80;88.50;;;;;;4913658;29;20039;-82
2022/10/02 09:29:11;;;;;;;7.15;3.10;;;14.80;88.40;;;;;;4890249;29;20036;-82
2022/10/02 09:32:03;;;;;;;9.82;3.10;;;14.90;88.30;;;;;;4920417;29;20090;-82
2022/10/02 09:34:49;;;;;;;9.20;3.03;;;14.80;88.20;;;;;;4906423;28;20036;-82
2022/10/02 09:37:43;;;;;;;8.30;2.90;;;14.90;88.20;;;;;;4917972;28;20047;-79
2022/10/02 09:40:41;;;;;;;10.25;3.17;;;15.00;88.30;;;;;;4899836;28;20043;-82
2022/10/02 09:43:29;;;;;;;7.32;2.67;;;15.00;88.20;;;;;;4913743;29;20044;-82
2022/10/02 09:46:18;;;;;;;8.30;3.05;;;15.10;88.00;;;;;;4900066;29;20509;-80
2022/10/02 09:49:02;;;;;;;6.20;2.40;;;15.10;87.70;;;;;;4903122;28;20051;-80
2022/10/02 09:51:43;;;;;;;7.20;3.10;;;15.20;87.50;;;;;;4899068;29;20036;-82
2022/10/02 09:54:42;;;;;;;7.57;3.67;;;15.20;87.50;;;;;;4900275;29;20121;-81
2022/10/02 09:57:30;;;;;;;7.15;3.38;;;15.30;87.20;;;;;;4890764;29;20056;-80
2022/10/02 10:00:26;;;;;;;8.55;4.35;;;15.30;87.50;;;;;;4920591;28;20024;-80
2022/10/02 10:03:16;;;;;;;8.57;3.85;;;15.30;87.10;;;;;;4923543;29;20055;-80
2022/10/02 10:06:28;;;;;;;8.88;3.97;;;15.30;87.10;;;;;;4919913;29;20035;-79
2022/10/02 10:09:31;;;;;;;8.63;4.15;;;15.30;87.10;;;;;;4913294;28;20123;-81
2022/10/02 10:12:23;;;;;;;8.75;3.53;;;15.30;86.90;;;;;;4929825;28;20032;-80
2022/10/02 10:15:22;;;;;;;8.40;3.65;;;15.20;87.00;;;;;;4923774;28;20054;-80
2022/10/02 10:18:25;;;;;;;8.82;3.50;;;15.30;87.00;;;;;;4894060;28;20039;-81
2022/10/02 10:21:12;;;;;;;8.98;3.45;;;15.20;86.60;;;;;;4915597;29;20055;-79
2022/10/02 10:23:49;;;;;;;8.00;4.03;;;15.30;87.10;;;;;;4912690;28;20048;-78
2022/10/02 10:26:51;;;;;;;9.10;4.30;;;15.40;87.00;;;;;;4920105;29;20277;-77
2022/10/02 10:29:53;;;;;;;8.40;4.10;;;15.40;87.00;;;;;;4919555;28;20048;-77
2022/10/02 10:32:40;;;;;;;10.50;5.00;;;15.50;87.00;;;;;;4919964;29;20095;-76
2022/10/02 10:35:24;;;;;;;11.55;5.70;;;15.40;86.80;;;;;;4919924;28;20269;-77
2022/10/02 10:41:21;;;;;;;10.73;4.65;;;15.50;86.40;;;;;;4916878;28;20043;-77
2022/10/02 10:44:08;;;;;;;7.35;3.70;;;15.50;86.70;;;;;;4920827;28;20044;-77
2022/10/02 10:47:17;;;;;;;10.10;3.58;;;15.50;86.70;;;;;;4912350;29;20126;-76
2022/10/02 10:50:20;;;;;;;7.47;3.67;;;15.60;86.50;;;;;;4914407;28;20541;-76
2022/10/02 10:53:15;;;;;;;8.35;4.00;;;15.60;86.20;;;;;;4928171;28;20135;-77
2022/10/02 10:55:45;;;;;;;8.65;3.38;;;15.70;86.40;;;;;;4916924;28;20026;-77
2022/10/02 10:58:38;;;;;;;10.32;4.07;;;15.60;85.80;;;;;;4919716;29;20139;-76
2022/10/02 11:01:22;;;;;;;9.60;4.65;;;15.60;86.30;;;;;;4917415;29;20048;-76
2022/10/02 11:04:21;;;;;;;10.50;4.25;;;15.70;86.30;;;;;;4907899;28;20213;-77
2022/10/02 11:07:18;;;;;;;12.60;4.18;;;15.70;85.90;;;;;;4916309;29;20028;-75
2022/10/02 11:09:44;;;;;;;8.80;3.95;;;15.80;85.80;;;;;;4935567;28;20028;-78
2022/10/02 11:12:21;;;;;;;8.02;3.70;;;15.70;85.80;;;;;;4924691;29;20084;-76
2022/10/02 11:15:06;;;;;;;8.07;3.97;;;15.70;85.60;;;;;;4920273;28;20415;-78
2022/10/02 11:17:39;;;;;;;7.45;4.10;;;15.70;85.80;;;;;;4923680;29;20130;-77
2022/10/02 11:20:08;;;;;;;9.20;4.25;;;15.80;85.60;;;;;;4923894;28;20131;-77
2022/10/02 11:22:56;;;;;;;9.15;4.07;;;15.80;85.40;;;;;;4921689;29;20063;-76
2022/10/02 11:25:30;;;;;;;7.97;4.15;;;15.80;85.90;;;;;;4919534;28;20127;-76
2022/10/02 11:28:06;;;;;;;;;;;15.80;86.00;;;;;;4918567;29;20035;-77
2022/10/02 11:30:37;;;;;;;12.10;5.07;;;15.90;85.40;;;;;;4916740;28;19910;-75
2022/10/02 11:33:37;;;;;;;9.75;4.00;;;15.90;85.50;;;;;;4904070;29;20074;-76
2022/10/02 11:36:05;;;;;;;10.63;4.90;;;15.90;85.30;;;;;;4914396;28;20069;-76
2022/10/02 11:39:08;;;;;;;9.27;4.72;;;15.90;85.60;;;;;;4912919;29;20024;-76
2022/10/02 11:41:54;;;;;;;9.52;4.68;;;16.00;85.80;;;;;;4917450;29;20110;-76
2022/10/02 11:44:47;;;;;;;10.63;5.07;;;16.00;85.80;;;;;;4914946;29;20452;-76
2022/10/02 11:47:45;;;;;;;12.00;5.25;;;16.10;85.80;;;;;;4924709;29;20185;-76
2022/10/02 11:50:22;;;;;;;11.68;4.78;;;16.10;85.50;;;;;;4923289;29;20034;-76
2022/10/02 11:53:10;;;;;;;10.02;4.68;;;16.10;85.60;;;;;;4925873;29;20102;-76
2022/10/02 11:56:06;;;;;;;10.05;4.70;;;16.20;85.60;;;;;;4913818;29;20036;-76
2022/10/02 11:58:55;;;;;;;9.63;4.95;;;16.40;85.70;;;;;;4914962;28;20032;-77
2022/10/02 12:01:44;;;;;;;9.13;4.80;;;16.40;85.00;;;;;;4911267;29;20113;-76
2022/10/02 12:04:27;;;;;;;11.27;5.00;;;16.50;85.00;;;;;;4927190;28;20039;-76
2022/10/02 12:07:19;;;;;;;13.32;8.73;;;16.60;85.00;;;;;;4926886;29;20043;-75
2022/10/02 12:10:15;;;;;;;13.02;7.07;;;16.60;84.80;;;;;;4921945;28;20455;-76
2022/10/02 12:13:04;;;;;;;12.07;6.53;;;16.60;85.00;;;;;;4922081;29;20030;-76
2022/10/02 12:16:22;;;;;;;11.90;7.90;;;16.60;85.00;;;;;;4926374;28;20475;-75
2022/10/02 12:18:55;;;;;;;14.18;8.00;;;16.60;84.70;;;;;;4877212;29;20057;-75
2022/10/02 12:27:54;;;;;;;14.85;7.85;;;16.50;85.70;;;;;;4914842;29;20047;-75
2022/10/02 12:30:24;;;;;;;11.52;7.45;;;16.60;85.50;;;;;;4911023;29;20036;-75
2022/10/02 12:32:54;;;;;;;15.63;8.93;;;16.70;85.30;;;;;;4907329;29;20059;-76
2022/10/02 12:35:41;;;;;;;14.18;8.32;;;16.80;85.20;;;;;;4920765;29;20046;-76
2022/10/02 12:38:10;;;;;;;13.98;10.52;;;16.90;85.10;;;;;;4905013;29;20305;-78
2022/10/02 12:40:43;;;;;;;16.45;11.93;;;17.00;84.50;;;;;;4903352;29;20067;-77
2022/10/02 12:43:28;;;;;;;16.67;10.77;;;17.00;84.20;;;;;;4913547;29;20150;-76
2022/10/02 12:46:02;;;;;;;14.23;11.05;;;17.00;83.90;;;;;;4923317;29;20464;-77
2022/10/02 12:48:44;;;;;;;16.30;12.18;;;17.00;84.10;;;;;;4915289;28;20078;-78
2022/10/02 12:51:35;;;;;;;15.82;13.38;;;16.90;84.50;;;;;;4919113;29;20075;-77
2022/10/02 12:54:32;;;;;;;19.20;14.23;;;16.90;84.70;;;;;;4917973;28;20036;-76
2022/10/02 13:00:15;;;;;;;20.63;16.77;;;16.90;84.80;;;;;;4922130;28;20490;-76
2022/10/02 13:03:08;;;;;;;19.67;15.10;;;16.90;85.00;;;;;;4928328;29;20123;-79
2022/10/02 13:05:53;;;;;;;22.63;16.27;;;17.00;84.60;;;;;;4911657;29;20036;-77
2022/10/02 13:08:41;;;;;;;24.65;18.77;;;17.10;84.80;;;;;;4919908;29;20315;-77
2022/10/02 13:11:19;;;;;;;26.17;21.52;;;17.30;84.50;;;;;;4916219;29;20475;-76
2022/10/02 13:14:06;;;;;;;29.73;22.73;;;17.30;83.60;;;;;;4908005;29;20047;-76
2022/10/02 13:16:45;;;;;;;25.40;21.10;;;17.30;83.60;;;;;;4922465;29;20032;-76
2022/10/02 13:19:23;;;;;;;24.25;20.55;;;17.50;83.30;;;;;;4918924;29;20059;-76
2022/10/02 13:21:57;;;;;;;25.13;22.15;;;17.70;82.90;;;;;;4915955;29;20048;-76
2022/10/02 13:24:52;;;;;;;29.50;21.98;;;17.80;82.30;;;;;;4915141;29;20235;-76
2022/10/02 13:27:36;;;;;;;23.20;19.95;;;17.80;82.50;;;;;;4917555;29;20484;-75
2022/10/02 13:30:22;;;;;;;24.65;19.23;;;17.70;81.90;;;;;;4914505;29;20071;-77
2022/10/02 13:32:57;;;;;;;26.25;20.65;;;17.80;82.60;;;;;;4921494;29;20941;-77
2022/10/02 13:35:33;;;;;;;26.58;19.90;;;17.80;82.40;;;;;;4922069;28;20044;-77
2022/10/02 13:38:29;;;;;;;22.10;15.93;;;17.90;82.40;;;;;;4922688;29;20041;-79
2022/10/02 13:41:07;;;;;;;21.80;15.32;;;18.00;81.80;;;;;;4923741;29;20043;-77
2022/10/02 13:43:45;;;;;;;20.73;14.57;;;18.10;80.70;;;;;;4918252;28;20051;-77
2022/10/02 13:46:32;;;;;;;23.02;14.80;;;18.10;80.20;;;;;;4927698;29;20040;-77
2022/10/02 13:48:58;;;;;;;20.30;13.32;;;18.30;80.80;;;;;;4923103;29;20076;-77
2022/10/02 13:51:37;;;;;;;23.88;14.10;;;18.60;80.30;;;;;;4922540;29;20056;-77
2022/10/02 13:54:23;;;;;;;19.30;13.43;;;18.40;79.60;;;;;;4901033;29;20382;-76
2022/10/02 13:57:07;;;;;;;17.65;10.80;;;18.50;79.60;;;;;;4878154;29;20062;-77
2022/10/02 14:00:00;;;;;;;17.13;7.80;;;18.40;80.10;;;;;;4932393;28;20027;-77
2022/10/02 14:02:44;;;;;;;15.77;8.25;;;18.30;77.90;;;;;;4929481;29;20091;-76
2022/10/02 14:05:46;;;;;;;17.98;8.07;;;18.10;78.60;;;;;;4926391;28;20047;-77